^^
Station Historical Data
Daily Summary for February 6, 2017 Units:  English    Metric   Both
« Previous Day
Next Day »
Daily Weekly Monthly Yearly Custom
  High: Low: Average:
Temperature: 49.6 °F 31.8 °F 40.3 °F
Dew Point: 29.5 °F 21.6 °F 26 °F
Humidity: 76 % 43 % 57 %
Wind Speed: 12.5 mph 0.0 mph 4.2 mph
Wind Gust: 21.9 mph - -
Wind:- - West
Pressure: 30.17 in 29.98 in -
Precipitation: 0.00 in    
Historical Graphs
 
 
Tabular Data for February 6, 2017
Time Temperature Dew Point Pressure Wind Wind Speed Wind Gust Humidity Rainfall Rate (Hourly) solar Conditions
00:04 41.6 °F 27.5 °F 29.99 in WNW 6.1 mph 8.1 mph 57 % 0.00 in 0.0 W/m2 CLR
00:09 41.6 °F 27.5 °F 30.00 in WNW 6.5 mph 9.2 mph 57 % 0.00 in 0.0 W/m2 CLR
00:14 41.6 °F 27.5 °F 29.99 in WNW 2.9 mph 4.0 mph 57 % 0.00 in 0.0 W/m2 CLR
00:19 41.6 °F 27.1 °F 30.00 in WNW 5.0 mph 10.4 mph 56 % 0.00 in 0.0 W/m2 CLR
00:24 41.6 °F 27.1 °F 30.00 in WNW 5.4 mph 8.1 mph 56 % 0.00 in 0.0 W/m2 CLR
00:29 41.6 °F 27.1 °F 30.00 in WNW 5.0 mph 10.4 mph 56 % 0.00 in 0.0 W/m2 CLR
00:34 41.6 °F 27.1 °F 30.00 in WNW 6.6 mph 12.7 mph 56 % 0.00 in 0.0 W/m2 CLR
00:39 41.6 °F 27.1 °F 30.00 in West 10.9 mph 20.0 mph 56 % 0.00 in 0.0 W/m2 CLR
00:44 41.7 °F 26.7 °F 30.00 in WNW 6.7 mph 11.5 mph 55 % 0.00 in 0.0 W/m2 CLR
00:49 41.6 °F 26.6 °F 30.00 in WNW 12.5 mph 15.0 mph 55 % 0.00 in 0.0 W/m2 CLR
00:54 41.6 °F 26.6 °F 30.00 in West 12.0 mph 16.1 mph 55 % 0.00 in 0.0 W/m2 CLR
00:59 41.6 °F 26.2 °F 30.00 in NW 11.4 mph 18.4 mph 54 % 0.00 in 0.0 W/m2 CLR
01:05 41.5 °F 26.1 °F 29.99 in WNW 9.2 mph 18.4 mph 54 % 0.00 in 0.0 W/m2 CLR
01:10 41.4 °F 26.0 °F 30.00 in WNW 10.0 mph 18.0 mph 54 % 0.00 in 0.0 W/m2 CLR
01:15 41.2 °F 26.2 °F 29.99 in WNW 9.7 mph 16.1 mph 55 % 0.00 in 0.0 W/m2 CLR
01:20 41.1 °F 26.1 °F 29.99 in NW 8.4 mph 12.7 mph 55 % 0.00 in 0.0 W/m2 CLR
01:25 41.0 °F 26.1 °F 30.00 in West 8.9 mph 12.7 mph 55 % 0.00 in 0.0 W/m2 CLR
01:30 40.8 °F 25.9 °F 30.00 in West 10.4 mph 13.8 mph 55 % 0.00 in 0.0 W/m2 CLR
01:35 40.8 °F 25.9 °F 30.00 in WNW 9.6 mph 13.8 mph 55 % 0.00 in 0.0 W/m2 CLR
01:40 40.7 °F 25.8 °F 30.01 in WNW 6.2 mph 9.2 mph 55 % 0.00 in 0.0 W/m2 CLR
01:45 40.6 °F 26.1 °F 30.01 in WNW 11.9 mph 17.3 mph 56 % 0.00 in 0.0 W/m2 CLR
01:50 40.6 °F 25.7 °F 30.01 in West 10.4 mph 15.0 mph 55 % 0.00 in 0.0 W/m2 CLR
01:55 40.6 °F 25.7 °F 30.01 in West 9.0 mph 12.7 mph 55 % 0.00 in 0.0 W/m2 CLR
02:00 40.5 °F 25.6 °F 30.01 in WNW 9.1 mph 16.1 mph 55 % 0.00 in 0.0 W/m2 CLR
02:05 40.5 °F 25.6 °F 30.01 in West 11.5 mph 16.1 mph 55 % 0.00 in 0.0 W/m2 CLR
02:10 40.4 °F 25.5 °F 30.02 in West 11.2 mph 16.1 mph 55 % 0.00 in 0.0 W/m2 CLR
02:15 40.4 °F 25.9 °F 30.02 in West 10.2 mph 12.7 mph 56 % 0.00 in 0.0 W/m2 CLR
02:20 40.3 °F 25.8 °F 30.02 in West 11.1 mph 21.9 mph 56 % 0.00 in 0.0 W/m2 CLR
02:25 40.3 °F 25.4 °F 30.02 in WSW 8.4 mph 13.8 mph 55 % 0.00 in 0.0 W/m2 CLR
02:30 40.2 °F 25.7 °F 30.03 in WNW 8.1 mph 11.5 mph 56 % 0.00 in 0.0 W/m2 CLR
02:35 40.1 °F 25.6 °F 30.03 in WNW 8.3 mph 11.5 mph 56 % 0.00 in 0.0 W/m2 CLR
02:40 40.0 °F 25.6 °F 30.03 in West 5.6 mph 10.4 mph 56 % 0.00 in 0.0 W/m2 CLR
02:45 39.9 °F 25.5 °F 30.03 in WNW 7.0 mph 9.2 mph 56 % 0.00 in 0.0 W/m2 CLR
02:50 39.9 °F 25.5 °F 30.04 in WNW 4.5 mph 10.4 mph 56 % 0.00 in 0.0 W/m2 CLR
02:55 39.8 °F 25.4 °F 30.04 in WNW 4.1 mph 9.2 mph 56 % 0.00 in 0.0 W/m2 CLR
03:00 39.7 °F 25.3 °F 30.04 in WNW 11.3 mph 17.3 mph 56 % 0.00 in 0.0 W/m2 CLR
03:05 39.7 °F 25.3 °F 30.04 in WNW 11.0 mph 14.0 mph 56 % 0.00 in 0.0 W/m2 CLR
03:10 39.5 °F 25.1 °F 30.04 in West 10.4 mph 16.1 mph 56 % 0.00 in 0.0 W/m2 CLR
03:15 39.4 °F 25.0 °F 30.04 in West 9.1 mph 12.7 mph 56 % 0.00 in 0.0 W/m2 CLR
03:20 39.3 °F 24.9 °F 30.04 in NW 10.6 mph 16.1 mph 56 % 0.00 in 0.0 W/m2 CLR
03:25 39.1 °F 24.7 °F 30.04 in WNW 10.7 mph 15.0 mph 56 % 0.00 in 0.0 W/m2 CLR
03:30 38.9 °F 24.5 °F 30.04 in West 11.4 mph 17.3 mph 56 % 0.00 in 0.0 W/m2 CLR
03:35 38.9 °F 24.5 °F 30.04 in West 10.3 mph 19.6 mph 56 % 0.00 in 0.0 W/m2 CLR
03:40 38.9 °F 24.5 °F 30.05 in WNW 9.4 mph 17.0 mph 56 % 0.00 in 0.0 W/m2 CLR
03:45 38.8 °F 24.4 °F 30.05 in WNW 6.9 mph 10.4 mph 56 % 0.00 in 0.0 W/m2 CLR
03:50 38.6 °F 24.7 °F 30.05 in WNW 8.4 mph 13.8 mph 57 % 0.00 in 0.0 W/m2 CLR
03:55 38.4 °F 24.5 °F 30.06 in NW 7.8 mph 11.5 mph 57 % 0.00 in 0.0 W/m2 CLR
04:00 38.3 °F 24.4 °F 30.06 in NW 6.9 mph 10.4 mph 57 % 0.00 in 0.0 W/m2 CLR
04:05 38.1 °F 24.2 °F 30.06 in WSW 6.4 mph 8.1 mph 57 % 0.00 in 0.0 W/m2 CLR
04:10 38.1 °F 24.2 °F 30.06 in WNW 8.3 mph 12.7 mph 57 % 0.00 in 0.0 W/m2 CLR
04:15 37.9 °F 24.0 °F 30.06 in NW 3.5 mph 6.9 mph 57 % 0.00 in 0.0 W/m2 CLR
04:20 37.7 °F 23.8 °F 30.06 in WNW 5.2 mph 13.8 mph 57 % 0.00 in 0.0 W/m2 CLR
04:25 37.7 °F 23.4 °F 30.07 in NW 6.5 mph 11.5 mph 56 % 0.00 in 0.0 W/m2 CLR
04:30 37.5 °F 23.2 °F 30.07 in NW 6.4 mph 15.0 mph 56 % 0.00 in 0.0 W/m2 CLR
04:35 37.5 °F 23.2 °F 30.07 in West 6.7 mph 13.8 mph 56 % 0.00 in 0.0 W/m2 CLR
04:40 37.4 °F 23.1 °F 30.07 in WNW 6.9 mph 10.4 mph 56 % 0.00 in 0.0 W/m2 CLR
04:45 37.2 °F 22.9 °F 30.07 in WNW 3.9 mph 10.4 mph 56 % 0.00 in 0.0 W/m2 CLR
04:50 37.1 °F 22.8 °F 30.08 in WNW 6.1 mph 11.5 mph 56 % 0.00 in 0.0 W/m2 CLR
04:55 37.0 °F 22.7 °F 30.08 in WNW 5.2 mph 9.2 mph 56 % 0.00 in 0.0 W/m2 CLR
05:00 36.9 °F 22.7 °F 30.08 in WNW 7.0 mph 10.4 mph 56 % 0.00 in 0.0 W/m2 CLR
05:05 36.7 °F 22.5 °F 30.07 in West 6.6 mph 10.4 mph 56 % 0.00 in 0.0 W/m2 CLR
05:11 36.6 °F 22.8 °F 30.08 in WNW 6.0 mph 9.2 mph 57 % 0.00 in 0.0 W/m2 CLR
05:16 36.6 °F 22.8 °F 30.08 in WNW 7.2 mph 10.4 mph 57 % 0.00 in 0.0 W/m2 CLR
05:21 36.5 °F 22.7 °F 30.08 in WSW 5.6 mph 9.2 mph 57 % 0.00 in 0.0 W/m2 CLR
05:26 36.4 °F 22.6 °F 30.08 in West 3.2 mph 6.9 mph 57 % 0.00 in 0.0 W/m2 CLR
05:31 36.3 °F 22.5 °F 30.08 in WNW 2.4 mph 8.1 mph 57 % 0.00 in 0.0 W/m2 CLR
05:36 36.3 °F 22.9 °F 30.09 in West 8.7 mph 11.5 mph 58 % 0.00 in 0.0 W/m2 CLR
05:41 36.3 °F 22.9 °F 30.09 in West 3.7 mph 5.8 mph 58 % 0.00 in 0.0 W/m2 CLR
05:46 36.0 °F 22.6 °F 30.09 in West 6.1 mph 10.0 mph 58 % 0.00 in 0.0 W/m2 CLR
05:51 36.0 °F 22.6 °F 30.10 in West 4.7 mph 8.1 mph 58 % 0.00 in 0.0 W/m2 CLR
05:56 35.9 °F 23.0 °F 30.10 in West 6.7 mph 10.4 mph 59 % 0.00 in 0.0 W/m2 CLR
06:01 35.9 °F 23.0 °F 30.10 in West 3.9 mph 7.0 mph 59 % 0.00 in 0.0 W/m2 CLR
06:06 35.8 °F 22.9 °F 30.11 in WNW 2.9 mph 4.6 mph 59 % 0.00 in 0.0 W/m2 CLR
06:11 35.6 °F 22.7 °F 30.11 in West 2.6 mph 3.5 mph 59 % 0.00 in 0.0 W/m2 CLR
06:16 35.5 °F 22.6 °F 30.11 in WNW 6.1 mph 10.4 mph 59 % 0.00 in 0.0 W/m2 CLR
06:21 35.6 °F 22.7 °F 30.11 in WNW 7.6 mph 11.5 mph 59 % 0.00 in 0.0 W/m2 CLR
06:26 35.6 °F 22.7 °F 30.11 in WNW 6.9 mph 10.4 mph 59 % 0.00 in 0.0 W/m2 CLR
06:31 35.6 °F 22.7 °F 30.11 in West 5.9 mph 10.4 mph 59 % 0.00 in 0.0 W/m2 CLR
06:36 35.6 °F 22.7 °F 30.11 in WNW 4.5 mph 9.2 mph 59 % 0.00 in 0.0 W/m2 CLR
06:41 35.5 °F 22.6 °F 30.11 in West 3.7 mph 8.1 mph 59 % 0.00 in 0.0 W/m2 CLR
06:46 35.2 °F 22.3 °F 30.11 in West 1.9 mph 5.8 mph 59 % 0.00 in 0.0 W/m2 CLR
06:51 34.9 °F 22.4 °F 30.11 in West 0.5 mph 3.5 mph 60 % 0.00 in 0.0 W/m2 CLR
06:56 34.6 °F 22.1 °F 30.11 in Calm   2.3 mph 60 % 0.00 in 0.0 W/m2 CLR
07:01 34.3 °F 22.2 °F 30.11 in WSW 0.7 mph 3.5 mph 61 % 0.00 in 0.0 W/m2 OVC
07:06 34.1 °F 22.0 °F 30.11 in WSW 0.4 mph 2.3 mph 61 % 0.00 in 0.0 W/m2 OVC
07:11 33.8 °F 22.1 °F 30.12 in Calm   2.3 mph 62 % 0.00 in 7.0 W/m2 OVC
07:16 32.8 °F 21.6 °F 30.12 in Calm     63 % 0.00 in 9.0 W/m2 OVC
07:21 32.1 °F 21.7 °F 30.12 in Calm     65 % 0.00 in 12.0 W/m2 OVC
07:26 31.8 °F 21.7 °F 30.12 in WSW 1.9 mph 3.5 mph 66 % 0.00 in 14.0 W/m2 CLR
07:31 32.1 °F 22.0 °F 30.12 in WSW 1.4 mph 3.5 mph 66 % 0.00 in 18.0 W/m2 CLR
07:36 32.5 °F 22.4 °F 30.12 in WSW 1.9 mph 3.5 mph 66 % 0.00 in 19.0 W/m2 CLR
07:41 32.8 °F 22.7 °F 30.12 in WSW 0.8 mph 3.5 mph 66 % 0.00 in 25.0 W/m2 CLR
07:46 32.9 °F 22.4 °F 30.12 in SSW 3.4 mph 5.8 mph 65 % 0.00 in 30.0 W/m2 FEW
07:51 33.4 °F 22.9 °F 30.11 in SW 2.8 mph 4.0 mph 65 % 0.00 in 40.0 W/m2 FEW
07:56 33.8 °F 22.9 °F 30.12 in WSW 2.4 mph 4.6 mph 64 % 0.00 in 44.0 W/m2 FEW
08:01 34.2 °F 22.9 °F 30.12 in WSW 0.1 mph 3.5 mph 63 % 0.00 in 51.0 W/m2 FEW
08:06 34.5 °F 23.2 °F 30.12 in WSW 1.1 mph 6.9 mph 63 % 0.00 in 74.0 W/m2 CLR
08:11 34.9 °F 23.2 °F 30.13 in WSW 3.9 mph 7.0 mph 62 % 0.00 in 83.0 W/m2 CLR
08:16 35.2 °F 23.5 °F 30.13 in West 2.9 mph 5.8 mph 62 % 0.00 in 88.0 W/m2 CLR
08:21 35.5 °F 23.4 °F 30.13 in West 3.5 mph 3.5 mph 61 % 0.00 in 84.0 W/m2 FEW
08:26 35.8 °F 23.7 °F 30.14 in WSW 2.1 mph 3.5 mph 61 % 0.00 in 104.0 W/m2 FEW
08:31 36.3 °F 23.7 °F 30.14 in West 3.5 mph 6.0 mph 60 % 0.00 in 83.0 W/m2 FEW
08:36 36.4 °F 23.8 °F 30.14 in West 4.3 mph 6.0 mph 60 % 0.00 in 81.0 W/m2 SCT
08:42 36.5 °F 23.9 °F 30.14 in West 4.9 mph 8.1 mph 60 % 0.00 in 104.0 W/m2 SCT
08:47 36.8 °F 24.2 °F 30.16 in WNW 5.4 mph 7.0 mph 60 % 0.00 in 116.0 W/m2 SCT
08:52 37.3 °F 24.3 °F 30.16 in WNW 5.8 mph 10.0 mph 59 % 0.00 in 130.0 W/m2 FEW
08:57 37.4 °F 24.4 °F 30.17 in WNW 6.4 mph 9.2 mph 59 % 0.00 in 216.0 W/m2 CLR
08:59 37.6 °F 24.6 °F 30.17 in WNW 3.0 mph 6.0 mph 59 % 0.00 in 225.0 W/m2 CLR
09:07 37.9 °F 24.4 °F 30.17 in West 2.5 mph 3.5 mph 58 % 0.00 in 141.0 W/m2 FEW
09:12 38.1 °F 24.6 °F 30.17 in West 4.7 mph 6.9 mph 58 % 0.00 in 139.0 W/m2 SCT
09:17 38.4 °F 24.9 °F 30.17 in WNW 3.0 mph 6.9 mph 58 % 0.00 in 218.0 W/m2 FEW
09:22 38.8 °F 24.4 °F 30.17 in WNW 3.8 mph 8.1 mph 56 % 0.00 in 200.0 W/m2 FEW
09:27 39.5 °F 24.7 °F 30.17 in WNW 8.0 mph 10.4 mph 55 % 0.00 in 322.0 W/m2 CLR
09:32 39.4 °F 24.6 °F 30.17 in SW 4.6 mph 4.6 mph 55 % 0.00 in 348.0 W/m2 CLR
09:37 39.5 °F 24.2 °F 30.17 in WSW 7.1 mph 11.5 mph 54 % 0.00 in 334.0 W/m2 CLR
09:42 39.4 °F 24.1 °F 30.17 in WNW 4.7 mph 6.9 mph 54 % 0.00 in 387.0 W/m2 CLR
09:47 40.3 °F 24.5 °F 30.17 in NW 4.7 mph 8.1 mph 53 % 0.00 in 410.0 W/m2 CLR
09:53 39.9 °F 24.1 °F 30.17 in WNW 6.5 mph 9.2 mph 53 % 0.00 in 410.0 W/m2 CLR
09:58 39.7 °F 24.0 °F 30.17 in WSW 4.2 mph 6.9 mph 53 % 0.00 in 399.0 W/m2 CLR
10:03 39.8 °F 24.0 °F 30.17 in WNW 5.0 mph 11.5 mph 53 % 0.00 in 369.0 W/m2 CLR
10:08 40.1 °F 24.3 °F 30.17 in WSW 5.8 mph 10.4 mph 53 % 0.00 in 390.0 W/m2 CLR
10:13 40.0 °F 24.7 °F 30.16 in WSW 2.0 mph 3.5 mph 54 % 0.00 in 290.0 W/m2 CLR
10:18 40.0 °F 24.2 °F 30.16 in WSW 5.1 mph 10.4 mph 53 % 0.00 in 345.0 W/m2 CLR
10:23 40.2 °F 24.9 °F 30.16 in WSW 2.2 mph 4.0 mph 54 % 0.00 in 468.0 W/m2 CLR
10:28 40.2 °F 24.4 °F 30.17 in West 5.9 mph 11.5 mph 53 % 0.00 in 378.0 W/m2 CLR
10:33 40.5 °F 24.7 °F 30.17 in WSW 5.1 mph 9.2 mph 53 % 0.00 in 229.0 W/m2 SCT
10:38 40.8 °F 25.0 °F 30.17 in West 3.6 mph 8.1 mph 53 % 0.00 in 130.0 W/m2 SCT
10:43 41.1 °F 24.8 °F 30.17 in West 3.4 mph 5.8 mph 52 % 0.00 in 241.0 W/m2 SCT
10:48 41.2 °F 24.9 °F 30.16 in WSW 4.3 mph 11.5 mph 52 % 0.00 in 371.0 W/m2 FEW
10:53 41.1 °F 24.8 °F 30.16 in NW 6.2 mph 11.5 mph 52 % 0.00 in 308.0 W/m2 SCT
10:58 42.1 °F 25.3 °F 30.16 in WSW 8.3 mph 13.0 mph 51 % 0.00 in 445.0 W/m2 CLR
11:03 41.5 °F 24.7 °F 30.16 in WSW 3.4 mph 5.8 mph 51 % 0.00 in 520.0 W/m2 CLR
11:08 41.7 °F 25.4 °F 30.16 in WSW 4.4 mph 10.4 mph 52 % 0.00 in 346.0 W/m2 FEW
11:13 42.1 °F 25.3 °F 30.16 in West 2.5 mph 8.1 mph 51 % 0.00 in 441.0 W/m2 CLR
11:18 42.1 °F 24.8 °F 30.16 in West 9.6 mph 16.1 mph 50 % 0.00 in 550.0 W/m2 CLR
11:23 42.0 °F 25.2 °F 30.16 in WNW 8.1 mph 12.7 mph 51 % 0.00 in 573.0 W/m2 CLR
11:28 42.5 °F 25.1 °F 30.16 in NW 2.8 mph 6.9 mph 50 % 0.00 in 573.0 W/m2 CLR
11:33 43.4 °F 25.5 °F 30.16 in WNW 11.7 mph 12.7 mph 49 % 0.00 in 578.0 W/m2 CLR
11:38 42.6 °F 25.2 °F 30.16 in WSW 6.8 mph 9.2 mph 50 % 0.00 in 580.0 W/m2 CLR
11:43 43.0 °F 25.6 °F 30.16 in SW 5.9 mph 11.5 mph 50 % 0.00 in 575.0 W/m2 CLR
11:48 42.6 °F 25.2 °F 30.16 in WSW 9.7 mph 12.7 mph 50 % 0.00 in 575.0 W/m2 CLR
11:53 42.5 °F 24.7 °F 30.15 in SW 6.4 mph 6.9 mph 49 % 0.00 in 589.0 W/m2 CLR
11:58 42.9 °F 24.5 °F 30.15 in WSW 5.0 mph 11.5 mph 48 % 0.00 in 589.0 W/m2 CLR
12:03 43.1 °F 25.2 °F 30.15 in SW 4.5 mph 8.0 mph 49 % 0.00 in 592.0 W/m2 CLR
12:08 43.9 °F 26.0 °F 30.15 in WSW 5.5 mph 8.0 mph 49 % 0.00 in 587.0 W/m2 CLR
12:13 44.2 °F 25.7 °F 30.14 in NW 5.3 mph 9.2 mph 48 % 0.00 in 592.0 W/m2 CLR
12:18 44.6 °F 25.6 °F 30.14 in SSW 4.4 mph 8.1 mph 47 % 0.00 in 589.0 W/m2 CLR
12:23 44.2 °F 25.2 °F 30.13 in WSW 5.7 mph 9.2 mph 47 % 0.00 in 584.0 W/m2 CLR
12:28 44.1 °F 25.6 °F 30.13 in West 6.9 mph 9.0 mph 48 % 0.00 in 578.0 W/m2 CLR
12:33 44.8 °F 25.8 °F 30.13 in West 8.2 mph 11.5 mph 47 % 0.00 in 578.0 W/m2 CLR
12:38 44.7 °F 25.7 °F 30.12 in West 6.3 mph 10.4 mph 47 % 0.00 in 582.0 W/m2 CLR
12:43 45.3 °F 25.7 °F 30.12 in SW 6.2 mph 10.0 mph 46 % 0.00 in 577.0 W/m2 CLR
12:48 45.2 °F 25.6 °F 30.12 in SW 6.1 mph 11.5 mph 46 % 0.00 in 577.0 W/m2 CLR
12:53 45.1 °F 25.5 °F 30.12 in SW 3.4 mph 11.5 mph 46 % 0.00 in 571.0 W/m2 CLR
12:58 45.2 °F 25.6 °F 30.12 in SW 5.2 mph 9.2 mph 46 % 0.00 in 570.0 W/m2 CLR
13:03 45.6 °F 25.5 °F 30.11 in SW 7.3 mph 12.7 mph 45 % 0.00 in 570.0 W/m2 CLR
13:08 46.1 °F 25.9 °F 30.11 in WSW 9.0 mph 12.7 mph 45 % 0.00 in 561.0 W/m2 CLR
13:13 45.7 °F 25.5 °F 30.11 in SSW 7.5 mph 11.0 mph 45 % 0.00 in 557.0 W/m2 CLR
13:18 46.4 °F 26.2 °F 30.11 in WSW 9.8 mph 10.4 mph 45 % 0.00 in 550.0 W/m2 CLR
13:24 46.4 °F 26.2 °F 30.11 in WSW 5.7 mph 10.4 mph 45 % 0.00 in 545.0 W/m2 CLR
13:29 46.7 °F 25.9 °F 30.11 in SW 7.5 mph 15.0 mph 44 % 0.00 in 540.0 W/m2 CLR
13:34 46.9 °F 26.1 °F 30.10 in SW 10.4 mph 16.1 mph 44 % 0.00 in 527.0 W/m2 CLR
13:39 47.0 °F 26.2 °F 30.10 in West 9.4 mph 11.5 mph 44 % 0.00 in 520.0 W/m2 CLR
13:44 47.1 °F 26.3 °F 30.10 in West 6.7 mph 7.0 mph 44 % 0.00 in 513.0 W/m2 CLR
13:49 47.3 °F 27.0 °F 30.10 in WSW 6.4 mph 9.0 mph 45 % 0.00 in 503.0 W/m2 CLR
13:54 47.6 °F 26.7 °F 30.09 in West 7.6 mph 12.7 mph 44 % 0.00 in 494.0 W/m2 CLR
13:59 47.8 °F 26.4 °F 30.09 in West 4.9 mph 12.7 mph 43 % 0.00 in 489.0 W/m2 CLR
14:04 47.8 °F 26.9 °F 30.09 in West 9.6 mph 12.7 mph 44 % 0.00 in 482.0 W/m2 CLR
14:09 47.9 °F 27.0 °F 30.09 in SW 3.7 mph 6.9 mph 44 % 0.00 in 471.0 W/m2 CLR
14:14 48.5 °F 27.6 °F 30.09 in West 4.2 mph 8.0 mph 44 % 0.00 in 455.0 W/m2 CLR
14:19 48.2 °F 27.3 °F 30.09 in West 6.6 mph 11.5 mph 44 % 0.00 in 448.0 W/m2 CLR
14:24 48.4 °F 28.0 °F 30.09 in SW 8.8 mph 15.0 mph 45 % 0.00 in 436.0 W/m2 CLR
14:29 48.2 °F 28.4 °F 30.09 in South 7.8 mph 10.4 mph 46 % 0.00 in 424.0 W/m2 CLR
14:34 48.2 °F 28.4 °F 30.09 in SSW 8.2 mph 13.8 mph 46 % 0.00 in 417.0 W/m2 CLR
14:39 48.5 °F 28.6 °F 30.09 in West 6.3 mph 9.2 mph 46 % 0.00 in 399.0 W/m2 CLR
14:44 48.3 °F 28.5 °F 30.09 in WSW 6.2 mph 10.4 mph 46 % 0.00 in 390.0 W/m2 CLR
14:49 48.3 °F 28.5 °F 30.08 in SW 5.2 mph 6.9 mph 46 % 0.00 in 381.0 W/m2 CLR
14:54 48.5 °F 28.6 °F 30.08 in SW 6.2 mph 11.0 mph 46 % 0.00 in 360.0 W/m2 CLR
14:59 48.6 °F 28.7 °F 30.08 in SW 6.8 mph 11.5 mph 46 % 0.00 in 350.0 W/m2 CLR
15:04 49.3 °F 28.8 °F 30.08 in WSW 4.3 mph 11.0 mph 45 % 0.00 in 339.0 W/m2 CLR
15:09 49.4 °F 28.9 °F 30.08 in West 7.2 mph 10.0 mph 45 % 0.00 in 329.0 W/m2 CLR
15:14 49.3 °F 28.8 °F 30.08 in SW 4.2 mph 6.9 mph 45 % 0.00 in 318.0 W/m2 CLR
15:19 49.1 °F 28.7 °F 30.07 in SSW 4.6 mph 6.9 mph 45 % 0.00 in 306.0 W/m2 CLR
15:24 49.2 °F 28.7 °F 30.07 in SW 5.2 mph 9.2 mph 45 % 0.00 in 290.0 W/m2 CLR
15:29 49.1 °F 28.7 °F 30.07 in SW 5.2 mph 8.1 mph 45 % 0.00 in 278.0 W/m2 CLR
15:34 49.2 °F 28.7 °F 30.07 in WSW 5.2 mph 9.2 mph 45 % 0.00 in 264.0 W/m2 CLR
15:39 49.1 °F 28.7 °F 30.07 in SSW 5.9 mph 10.4 mph 45 % 0.00 in 251.0 W/m2 CLR
15:44 49.3 °F 28.8 °F 30.07 in West 6.5 mph 11.5 mph 45 % 0.00 in 223.0 W/m2 CLR
15:49 49.4 °F 28.9 °F 30.06 in SW 2.8 mph 6.0 mph 45 % 0.00 in 211.0 W/m2 CLR
15:54 49.4 °F 28.9 °F 30.06 in SW 7.9 mph 10.4 mph 45 % 0.00 in 197.0 W/m2 CLR
15:59 49.5 °F 29.0 °F 30.06 in WSW 3.0 mph 10.4 mph 45 % 0.00 in 179.0 W/m2 CLR
16:04 49.4 °F 28.9 °F 30.06 in West 4.8 mph 9.2 mph 45 % 0.00 in 162.0 W/m2 CLR
16:09 49.6 °F 29.1 °F 30.06 in SW 6.3 mph 10.4 mph 45 % 0.00 in 141.0 W/m2 CLR
16:14 49.4 °F 28.9 °F 30.05 in SW 1.5 mph 6.9 mph 45 % 0.00 in 125.0 W/m2 CLR
16:19 49.4 °F 29.5 °F 30.05 in SW 3.1 mph 10.4 mph 46 % 0.00 in 113.0 W/m2 CLR
16:24 49.4 °F 29.5 °F 30.05 in SW 5.1 mph 9.0 mph 46 % 0.00 in 86.0 W/m2 FEW
16:29 49.3 °F 29.4 °F 30.06 in WSW 4.8 mph 7.0 mph 46 % 0.00 in 60.0 W/m2 SCT
16:34 49.1 °F 29.2 °F 30.05 in SW 0.5 mph 5.0 mph 46 % 0.00 in 63.0 W/m2 FEW
16:39 49.0 °F 29.1 °F 30.06 in WSW 2.3 mph 8.1 mph 46 % 0.00 in 54.0 W/m2 FEW
16:44 48.9 °F 29.5 °F 30.06 in WSW 0.2 mph 3.5 mph 47 % 0.00 in 33.0 W/m2 BKN
16:49 48.7 °F 29.4 °F 30.06 in Calm   2.3 mph 47 % 0.00 in 25.0 W/m2 BKN
16:54 48.6 °F 29.3 °F 30.06 in SW 0.9 mph 3.5 mph 47 % 0.00 in 26.0 W/m2 SCT
16:59 48.3 °F 29.0 °F 30.06 in Calm     47 % 0.00 in 25.0 W/m2 FEW
17:05 48.2 °F 29.4 °F 30.06 in Calm     48 % 0.00 in 21.0 W/m2 FEW
17:10 48.0 °F 29.2 °F 30.06 in SW 1.7 mph 3.0 mph 48 % 0.00 in 18.0 W/m2 CLR
17:15 47.8 °F 29.0 °F 30.06 in SW 0.3 mph 1.0 mph 48 % 0.00 in 14.0 W/m2 CLR
17:20 47.6 °F 29.4 °F 30.06 in Calm     49 % 0.00 in 9.0 W/m2 CLR
17:25 47.3 °F 29.1 °F 30.06 in Calm     49 % 0.00 in 0.0 W/m2 OVC
17:30 46.8 °F 29.1 °F 30.06 in Calm     50 % 0.00 in 0.0 W/m2 CLR
17:35 46.0 °F 28.9 °F 30.06 in Calm     51 % 0.00 in 0.0 W/m2 CLR
17:40 45.5 °F 28.9 °F 30.06 in Calm     52 % 0.00 in 0.0 W/m2 CLR
17:45 45.1 °F 28.5 °F 30.06 in Calm     52 % 0.00 in 0.0 W/m2 CLR
17:50 44.7 °F 29.1 °F 30.06 in Calm     54 % 0.00 in 0.0 W/m2 CLR
17:55 44.2 °F 28.6 °F 30.06 in Calm     54 % 0.00 in 0.0 W/m2 CLR
18:00 43.5 °F 28.4 °F 30.06 in Calm     55 % 0.00 in 0.0 W/m2 CLR
18:05 43.1 °F 28.5 °F 30.06 in Calm     56 % 0.00 in 0.0 W/m2 CLR
18:10 43.0 °F 28.8 °F 30.06 in Calm     57 % 0.00 in 0.0 W/m2 CLR
18:15 42.7 °F 28.5 °F 30.06 in Calm     57 % 0.00 in 0.0 W/m2 CLR
18:20 41.4 °F 27.7 °F 30.06 in Calm     58 % 0.00 in 0.0 W/m2 CLR
18:25 40.9 °F 27.7 °F 30.06 in Calm     59 % 0.00 in 0.0 W/m2 CLR
18:30 40.8 °F 28.0 °F 30.06 in Calm     60 % 0.00 in 0.0 W/m2 CLR
18:35 40.8 °F 28.0 °F 30.06 in Calm     60 % 0.00 in 0.0 W/m2 CLR
18:40 40.6 °F 28.2 °F 30.06 in Calm     61 % 0.00 in 0.0 W/m2 CLR
18:45 40.2 °F 27.8 °F 30.06 in Calm     61 % 0.00 in 0.0 W/m2 CLR
18:50 39.7 °F 27.7 °F 30.06 in Calm     62 % 0.00 in 0.0 W/m2 CLR
18:55 39.5 °F 27.9 °F 30.05 in Calm     63 % 0.00 in 0.0 W/m2 CLR
19:00 39.5 °F 27.9 °F 30.06 in Calm     63 % 0.00 in 0.0 W/m2 CLR
19:05 39.5 °F 28.3 °F 30.06 in Calm     64 % 0.00 in 0.0 W/m2 CLR
19:10 39.4 °F 28.2 °F 30.06 in Calm     64 % 0.00 in 0.0 W/m2 CLR
19:15 39.2 °F 27.7 °F 30.06 in Calm     63 % 0.00 in 0.0 W/m2 CLR
19:20 38.8 °F 27.7 °F 30.05 in Calm     64 % 0.00 in 0.0 W/m2 CLR
19:25 38.6 °F 27.8 °F 30.05 in Calm     65 % 0.00 in 0.0 W/m2 CLR
19:31 38.4 °F 27.7 °F 30.05 in Calm     65 % 0.00 in 0.0 W/m2 CLR
19:36 37.9 °F 27.5 °F 30.05 in Calm     66 % 0.00 in 0.0 W/m2 CLR
19:41 37.6 °F 27.6 °F 30.04 in Calm     67 % 0.00 in 0.0 W/m2 CLR
19:46 37.3 °F 27.3 °F 30.04 in Calm     67 % 0.00 in 0.0 W/m2 CLR
19:51 37.0 °F 27.4 °F 30.04 in Calm     68 % 0.00 in 0.0 W/m2 CLR
19:56 36.5 °F 26.9 °F 30.03 in Calm     68 % 0.00 in 0.0 W/m2 CLR
20:01 36.3 °F 27.1 °F 30.03 in Calm     69 % 0.00 in 0.0 W/m2 CLR
20:06 36.3 °F 27.4 °F 30.03 in Calm     70 % 0.00 in 0.0 W/m2 CLR
20:11 36.3 °F 27.4 °F 30.03 in Calm     70 % 0.00 in 0.0 W/m2 CLR
20:16 36.6 °F 27.7 °F 30.03 in Calm     70 % 0.00 in 0.0 W/m2 CLR
20:21 37.5 °F 28.2 °F 30.03 in Calm     69 % 0.00 in 0.0 W/m2 CLR
20:26 37.0 °F 27.4 °F 30.02 in Calm     68 % 0.00 in 0.0 W/m2 CLR
20:31 36.7 °F 27.5 °F 30.03 in Calm     69 % 0.00 in 0.0 W/m2 CLR
20:36 36.5 °F 27.3 °F 30.03 in Calm     69 % 0.00 in 0.0 W/m2 CLR
20:41 36.9 °F 27.7 °F 30.02 in Calm     69 % 0.00 in 0.0 W/m2 CLR
20:46 36.5 °F 27.3 °F 30.03 in Calm     69 % 0.00 in 0.0 W/m2 CLR
20:51 36.4 °F 27.5 °F 30.02 in Calm     70 % 0.00 in 0.0 W/m2 CLR
20:56 36.0 °F 27.2 °F 30.02 in Calm     70 % 0.00 in 0.0 W/m2 CLR
21:01 35.8 °F 27.0 °F 30.02 in Calm     70 % 0.00 in 0.0 W/m2 CLR
21:06 36.3 °F 27.8 °F 30.02 in WSW 0.7 mph 2.3 mph 71 % 0.00 in 0.0 W/m2 CLR
21:11 35.8 °F 27.0 °F 30.02 in WSW 1.6 mph 3.5 mph 70 % 0.00 in 0.0 W/m2 CLR
21:16 35.9 °F 27.4 °F 30.02 in Calm     71 % 0.00 in 0.0 W/m2 CLR
21:21 35.7 °F 27.2 °F 30.02 in Calm     71 % 0.00 in 0.0 W/m2 CLR
21:26 35.9 °F 27.4 °F 30.02 in Calm     71 % 0.00 in 0.0 W/m2 CLR
21:31 35.8 °F 27.3 °F 30.03 in Calm     71 % 0.00 in 0.0 W/m2 CLR
21:36 35.8 °F 27.7 °F 30.03 in West 1.3 mph 2.3 mph 72 % 0.00 in 0.0 W/m2 CLR
21:41 35.7 °F 27.6 °F 30.02 in Calm     72 % 0.00 in 0.0 W/m2 CLR
21:46 35.2 °F 27.1 °F 30.02 in Calm     72 % 0.00 in 0.0 W/m2 CLR
21:51 35.3 °F 27.5 °F 30.02 in Calm     73 % 0.00 in 0.0 W/m2 CLR
21:56 35.6 °F 27.8 °F 30.02 in Calm   1.0 mph 73 % 0.00 in 0.0 W/m2 CLR
22:01 35.2 °F 27.4 °F 30.02 in West 0.8 mph 2.0 mph 73 % 0.00 in 0.0 W/m2 CLR
22:06 35.0 °F 27.2 °F 30.02 in Calm     73 % 0.00 in 0.0 W/m2 CLR
22:11 35.0 °F 27.5 °F 30.02 in Calm     74 % 0.00 in 0.0 W/m2 CLR
22:16 34.8 °F 27.0 °F 30.01 in Calm     73 % 0.00 in 0.0 W/m2 CLR
22:21 34.6 °F 27.2 °F 30.01 in Calm     74 % 0.00 in 0.0 W/m2 CLR
22:26 34.8 °F 27.4 °F 30.01 in Calm     74 % 0.00 in 0.0 W/m2 CLR
22:31 34.4 °F 27.0 °F 30.01 in West 1.1 mph 1.2 mph 74 % 0.00 in 0.0 W/m2 CLR
22:36 34.1 °F 27.0 °F 30.01 in Calm     75 % 0.00 in 0.0 W/m2 CLR
22:41 34.2 °F 27.1 °F 30.01 in Calm     75 % 0.00 in 0.0 W/m2 CLR
22:46 34.3 °F 27.2 °F 30.01 in West 0.6 mph 2.3 mph 75 % 0.00 in 0.0 W/m2 CLR
22:52 34.1 °F 27.0 °F 30.01 in Calm   1.2 mph 75 % 0.00 in 0.0 W/m2 CLR
22:57 34.2 °F 27.1 °F 30.01 in Calm     75 % 0.00 in 0.0 W/m2 CLR
23:02 34.3 °F 27.2 °F 30.01 in Calm   2.3 mph 75 % 0.00 in 0.0 W/m2 CLR
23:07 34.0 °F 26.9 °F 30.01 in West 0.9 mph 3.0 mph 75 % 0.00 in 0.0 W/m2 CLR
23:12 34.1 °F 27.3 °F 30.00 in Calm     76 % 0.00 in 0.0 W/m2 CLR
23:17 34.1 °F 27.3 °F 30.00 in West 1.8 mph 2.3 mph 76 % 0.00 in 0.0 W/m2 CLR
23:22 34.1 °F 27.3 °F 30.00 in Calm     76 % 0.00 in 0.0 W/m2 CLR
23:27 34.1 °F 27.3 °F 30.00 in West 0.5 mph 2.3 mph 76 % 0.00 in 0.0 W/m2 CLR
23:32 34.2 °F 27.4 °F 30.00 in Calm     76 % 0.00 in 0.0 W/m2 CLR
23:37 34.1 °F 27.3 °F 29.99 in West 0.7 mph 1.2 mph 76 % 0.00 in 0.0 W/m2 CLR
23:42 34.3 °F 27.5 °F 29.99 in West 0.6 mph 2.0 mph 76 % 0.00 in 0.0 W/m2 CLR
23:47 34.4 °F 27.6 °F 29.99 in West 1.5 mph 3.5 mph 76 % 0.00 in 0.0 W/m2 CLR
23:52 34.2 °F 27.4 °F 29.99 in Calm     76 % 0.00 in 0.0 W/m2 CLR
23:57 34.3 °F 27.5 °F 29.98 in Calm     76 % 0.00 in 0.0 W/m2 CLR
Air Products Campus Weather
Compliments of Weather Underground - 3.5 mb